Enterprise, Oregon
Current Conditions -  °F | °C
As of 12:35 PM on Thursday 27 Nov 2014 (Local Time) from KLGD Reporting Station
Overcast Overcast  
Wind Chill: 54°   Ceiling: 6500
Heat Index: 54°   Visibility: 10mi
Dew Point: 36°   Wind: 15mph
Humidity: 51%   Direction: 170°S
Pressure: 29.97"   Gusts: NA
Location:  45.43°N, 117.28°W
Report Text: KLGD 272035Z AUTO 17013KT 10SM BKN065 OVC080 12/02 A2997 RMK AO1
Loading
Personal Weather Stations






























Interactive Weather Map New forecast layout! Learn more

10-Day Weather Forecast

Advertisements
Track Severe Weather on mobile